Bellmore, New York
Current Conditions -  °F | °C
As of 12:53 AM on Monday 26 Jan 2015 (Local Time) from KFRG Reporting Station
Overcast Overcast  
Wind Chill: 17°   Ceiling: 6000
Heat Index: 28°   Visibility: 10mi
Dew Point:   Wind: 15mph
Humidity: 43%   Direction: 40°NE
Pressure: 30.01"   Gusts: 18mph
Location:  40.67°N, 73.52°W
Report Text: KFRG 260553Z AUTO 04013G16KT 10SM BKN060 OVC090 M02/M13 A3001 RMK AO2 SLP162 T10221133 10017 21022 51015
Loading
Personal Weather Stations






























Interactive Weather Map New forecast layout! Learn more

10-Day Weather Forecast

Advertisements
Track Severe Weather on mobile